sensor_id;sensor_type;location;lat;lon;timestamp;P1;durP1;ratioP1;P2;durP2;ratioP2
65375;SDS011;51976;47.332;9.404;2024-01-06T00:00:27;2.40;;;1.10;;
65375;SDS011;51976;47.332;9.404;2024-01-06T00:02:53;1.77;;;0.90;;
65375;SDS011;51976;47.332;9.404;2024-01-06T00:05:18;1.45;;;0.80;;
65375;SDS011;51976;47.332;9.404;2024-01-06T00:07:43;1.88;;;0.90;;
65375;SDS011;51976;47.332;9.404;2024-01-06T00:10:09;1.67;;;0.77;;
65375;SDS011;51976;47.332;9.404;2024-01-06T00:12:34;1.17;;;0.80;;
65375;SDS011;51976;47.332;9.404;2024-01-06T00:15:00;1.40;;;0.73;;
65375;SDS011;51976;47.332;9.404;2024-01-06T00:17:25;2.13;;;1.00;;
65375;SDS011;51976;47.332;9.404;2024-01-06T00:19:50;1.60;;;1.00;;
65375;SDS011;51976;47.332;9.404;2024-01-06T00:22:17;2.20;;;0.80;;
65375;SDS011;51976;47.332;9.404;2024-01-06T00:24:43;2.50;;;1.08;;
65375;SDS011;51976;47.332;9.404;2024-01-06T00:27:08;1.88;;;0.90;;
65375;SDS011;51976;47.332;9.404;2024-01-06T00:29:34;1.52;;;0.90;;
65375;SDS011;51976;47.332;9.404;2024-01-06T00:31:59;1.95;;;0.90;;
65375;SDS011;51976;47.332;9.404;2024-01-06T00:34:25;2.05;;;1.05;;
65375;SDS011;51976;47.332;9.404;2024-01-06T00:36:50;2.72;;;1.15;;
65375;SDS011;51976;47.332;9.404;2024-01-06T00:39:15;2.28;;;1.25;;
65375;SDS011;51976;47.332;9.404;2024-01-06T00:41:41;3.53;;;1.35;;
65375;SDS011;51976;47.332;9.404;2024-01-06T00:44:06;1.98;;;1.35;;
65375;SDS011;51976;47.332;9.404;2024-01-06T00:46:32;1.70;;;1.17;;
65375;SDS011;51976;47.332;9.404;2024-01-06T00:48:57;2.20;;;1.73;;
65375;SDS011;51976;47.332;9.404;2024-01-06T00:51:22;4.20;;;1.48;;
65375;SDS011;51976;47.332;9.404;2024-01-06T00:53:48;2.70;;;1.60;;
65375;SDS011;51976;47.332;9.404;2024-01-06T00:56:13;2.53;;;1.50;;
65375;SDS011;51976;47.332;9.404;2024-01-06T00:58:38;2.60;;;1.20;;
65375;SDS011;51976;47.332;9.404;2024-01-06T01:01:04;2.45;;;1.50;;
65375;SDS011;51976;47.332;9.404;2024-01-06T01:03:29;2.47;;;1.52;;
65375;SDS011;51976;47.332;9.404;2024-01-06T01:05:54;1.83;;;1.23;;
65375;SDS011;51976;47.332;9.404;2024-01-06T01:08:20;2.10;;;1.30;;
65375;SDS011;51976;47.332;9.404;2024-01-06T01:10:45;2.22;;;1.50;;
65375;SDS011;51976;47.332;9.404;2024-01-06T01:13:11;1.70;;;1.23;;
65375;SDS011;51976;47.332;9.404;2024-01-06T01:15:36;1.42;;;1.08;;
65375;SDS011;51976;47.332;9.404;2024-01-06T01:18:01;1.92;;;1.20;;
65375;SDS011;51976;47.332;9.404;2024-01-06T01:20:27;3.33;;;1.48;;
65375;SDS011;51976;47.332;9.404;2024-01-06T01:22:52;2.47;;;1.67;;
65375;SDS011;51976;47.332;9.404;2024-01-06T01:25:17;2.13;;;1.50;;
65375;SDS011;51976;47.332;9.404;2024-01-06T01:27:43;1.98;;;1.40;;
65375;SDS011;51976;47.332;9.404;2024-01-06T01:30:08;2.60;;;1.60;;
65375;SDS011;51976;47.332;9.404;2024-01-06T01:32:34;2.13;;;1.40;;
65375;SDS011;51976;47.332;9.404;2024-01-06T01:34:59;2.15;;;1.50;;
65375;SDS011;51976;47.332;9.404;2024-01-06T01:37:25;2.83;;;1.75;;
65375;SDS011;51976;47.332;9.404;2024-01-06T01:39:50;2.13;;;1.65;;
65375;SDS011;51976;47.332;9.404;2024-01-06T01:42:15;2.35;;;1.50;;
65375;SDS011;51976;47.332;9.404;2024-01-06T01:44:41;3.67;;;1.92;;
65375;SDS011;51976;47.332;9.404;2024-01-06T01:47:06;2.20;;;1.58;;
65375;SDS011;51976;47.332;9.404;2024-01-06T01:49:32;3.53;;;1.30;;
65375;SDS011;51976;47.332;9.404;2024-01-06T01:51:58;2.38;;;1.23;;
65375;SDS011;51976;47.332;9.404;2024-01-06T01:54:23;2.47;;;1.65;;
65375;SDS011;51976;47.332;9.404;2024-01-06T01:56:50;1.95;;;1.38;;
65375;SDS011;51976;47.332;9.404;2024-01-06T01:59:16;4.63;;;1.75;;
65375;SDS011;51976;47.332;9.404;2024-01-06T02:01:44;2.10;;;1.42;;
65375;SDS011;51976;47.332;9.404;2024-01-06T02:04:09;2.05;;;1.38;;
65375;SDS011;51976;47.332;9.404;2024-01-06T02:06:35;2.08;;;1.33;;
65375;SDS011;51976;47.332;9.404;2024-01-06T02:09:00;1.77;;;1.25;;
65375;SDS011;51976;47.332;9.404;2024-01-06T02:11:26;1.33;;;1.08;;
65375;SDS011;51976;47.332;9.404;2024-01-06T02:13:51;2.58;;;1.50;;
65375;SDS011;51976;47.332;9.404;2024-01-06T02:16:16;1.95;;;1.20;;
65375;SDS011;51976;47.332;9.404;2024-01-06T02:18:42;1.60;;;1.10;;
65375;SDS011;51976;47.332;9.404;2024-01-06T02:21:07;1.45;;;1.10;;
65375;SDS011;51976;47.332;9.404;2024-01-06T02:23:34;2.00;;;1.38;;
65375;SDS011;51976;47.332;9.404;2024-01-06T02:26:00;1.42;;;1.20;;
65375;SDS011;51976;47.332;9.404;2024-01-06T02:28:26;1.75;;;1.05;;
65375;SDS011;51976;47.332;9.404;2024-01-06T02:30:51;1.60;;;1.10;;
65375;SDS011;51976;47.332;9.404;2024-01-06T02:33:17;1.30;;;0.90;;
65375;SDS011;51976;47.332;9.404;2024-01-06T02:35:44;1.52;;;1.17;;
65375;SDS011;51976;47.332;9.404;2024-01-06T02:38:10;1.58;;;1.27;;
65375;SDS011;51976;47.332;9.404;2024-01-06T02:40:36;1.65;;;1.27;;
65375;SDS011;51976;47.332;9.404;2024-01-06T02:43:01;1.23;;;0.95;;
65375;SDS011;51976;47.332;9.404;2024-01-06T02:45:26;2.10;;;1.25;;
65375;SDS011;51976;47.332;9.404;2024-01-06T02:47:52;2.13;;;1.40;;
65375;SDS011;51976;47.332;9.404;2024-01-06T02:50:17;2.10;;;1.45;;
65375;SDS011;51976;47.332;9.404;2024-01-06T02:52:43;1.90;;;1.20;;
65375;SDS011;51976;47.332;9.404;2024-01-06T02:55:10;1.63;;;1.20;;
65375;SDS011;51976;47.332;9.404;2024-01-06T02:57:37;2.00;;;1.50;;
65375;SDS011;51976;47.332;9.404;2024-01-06T03:00:03;2.58;;;1.60;;
65375;SDS011;51976;47.332;9.404;2024-01-06T03:02:29;1.88;;;1.25;;
65375;SDS011;51976;47.332;9.404;2024-01-06T03:04:54;2.58;;;1.50;;
65375;SDS011;51976;47.332;9.404;2024-01-06T03:07:20;2.30;;;1.60;;
65375;SDS011;51976;47.332;9.404;2024-01-06T03:09:46;1.80;;;1.35;;
65375;SDS011;51976;47.332;9.404;2024-01-06T03:12:11;1.77;;;1.30;;
65375;SDS011;51976;47.332;9.404;2024-01-06T03:14:37;1.63;;;1.48;;
65375;SDS011;51976;47.332;9.404;2024-01-06T03:17:03;1.67;;;1.20;;
65375;SDS011;51976;47.332;9.404;2024-01-06T03:19:30;1.85;;;1.50;;
65375;SDS011;51976;47.332;9.404;2024-01-06T03:21:55;1.85;;;1.40;;
65375;SDS011;51976;47.332;9.404;2024-01-06T03:24:23;1.73;;;1.40;;
65375;SDS011;51976;47.332;9.404;2024-01-06T03:26:50;1.83;;;1.52;;
65375;SDS011;51976;47.332;9.404;2024-01-06T03:29:16;1.80;;;1.50;;
65375;SDS011;51976;47.332;9.404;2024-01-06T03:31:42;1.83;;;1.40;;
65375;SDS011;51976;47.332;9.404;2024-01-06T03:34:08;1.90;;;1.60;;
65375;SDS011;51976;47.332;9.404;2024-01-06T03:36:34;1.88;;;1.38;;
65375;SDS011;51976;47.332;9.404;2024-01-06T03:38:59;1.73;;;1.40;;
65375;SDS011;51976;47.332;9.404;2024-01-06T03:41:25;2.25;;;1.70;;
65375;SDS011;51976;47.332;9.404;2024-01-06T03:43:50;3.15;;;1.95;;
65375;SDS011;51976;47.332;9.404;2024-01-06T03:46:15;2.33;;;1.58;;
65375;SDS011;51976;47.332;9.404;2024-01-06T03:48:41;2.10;;;1.80;;
65375;SDS011;51976;47.332;9.404;2024-01-06T03:51:06;1.90;;;1.50;;
65375;SDS011;51976;47.332;9.404;2024-01-06T03:53:32;1.67;;;1.33;;
65375;SDS011;51976;47.332;9.404;2024-01-06T03:55:57;1.92;;;1.30;;
65375;SDS011;51976;47.332;9.404;2024-01-06T03:58:23;1.58;;;1.10;;
65375;SDS011;51976;47.332;9.404;2024-01-06T04:00:48;1.50;;;1.08;;
65375;SDS011;51976;47.332;9.404;2024-01-06T04:03:14;1.70;;;1.23;;
65375;SDS011;51976;47.332;9.404;2024-01-06T04:05:39;1.67;;;1.10;;
65375;SDS011;51976;47.332;9.404;2024-01-06T04:08:04;1.63;;;1.25;;
65375;SDS011;51976;47.332;9.404;2024-01-06T04:10:30;1.30;;;1.00;;
65375;SDS011;51976;47.332;9.404;2024-01-06T04:12:55;1.70;;;1.15;;
65375;SDS011;51976;47.332;9.404;2024-01-06T04:15:21;1.60;;;1.10;;
65375;SDS011;51976;47.332;9.404;2024-01-06T04:17:47;1.77;;;1.08;;
65375;SDS011;51976;47.332;9.404;2024-01-06T04:20:13;1.48;;;1.10;;
65375;SDS011;51976;47.332;9.404;2024-01-06T04:22:39;1.40;;;1.00;;
65375;SDS011;51976;47.332;9.404;2024-01-06T04:25:04;1.63;;;1.25;;
65375;SDS011;51976;47.332;9.404;2024-01-06T04:27:30;1.38;;;0.98;;
65375;SDS011;51976;47.332;9.404;2024-01-06T04:29:56;1.88;;;1.10;;
65375;SDS011;51976;47.332;9.404;2024-01-06T04:32:21;1.58;;;1.10;;
65375;SDS011;51976;47.332;9.404;2024-01-06T04:34:47;1.38;;;1.02;;
65375;SDS011;51976;47.332;9.404;2024-01-06T04:37:12;1.67;;;0.90;;
65375;SDS011;51976;47.332;9.404;2024-01-06T04:39:38;1.27;;;0.90;;
65375;SDS011;51976;47.332;9.404;2024-01-06T04:42:03;1.10;;;0.70;;
65375;SDS011;51976;47.332;9.404;2024-01-06T04:44:29;1.52;;;1.30;;
65375;SDS011;51976;47.332;9.404;2024-01-06T04:46:55;1.20;;;0.93;;
65375;SDS011;51976;47.332;9.404;2024-01-06T04:49:20;1.75;;;0.88;;
65375;SDS011;51976;47.332;9.404;2024-01-06T04:51:46;1.38;;;1.00;;
65375;SDS011;51976;47.332;9.404;2024-01-06T04:54:12;1.92;;;1.20;;
65375;SDS011;51976;47.332;9.404;2024-01-06T04:56:38;1.85;;;1.30;;
65375;SDS011;51976;47.332;9.404;2024-01-06T04:59:03;1.33;;;1.10;;
65375;SDS011;51976;47.332;9.404;2024-01-06T05:01:28;1.70;;;1.10;;
65375;SDS011;51976;47.332;9.404;2024-01-06T05:03:54;1.50;;;0.93;;
65375;SDS011;51976;47.332;9.404;2024-01-06T05:06:19;1.90;;;1.17;;
65375;SDS011;51976;47.332;9.404;2024-01-06T05:08:44;1.73;;;1.13;;
65375;SDS011;51976;47.332;9.404;2024-01-06T05:11:10;1.98;;;1.20;;
65375;SDS011;51976;47.332;9.404;2024-01-06T05:13:37;2.00;;;1.13;;
65375;SDS011;51976;47.332;9.404;2024-01-06T05:16:03;1.83;;;1.35;;
65375;SDS011;51976;47.332;9.404;2024-01-06T05:18:28;2.20;;;1.40;;
65375;SDS011;51976;47.332;9.404;2024-01-06T05:20:54;2.25;;;1.15;;
65375;SDS011;51976;47.332;9.404;2024-01-06T05:23:20;1.83;;;1.10;;
65375;SDS011;51976;47.332;9.404;2024-01-06T05:25:45;1.67;;;1.25;;
65375;SDS011;51976;47.332;9.404;2024-01-06T05:28:11;1.35;;;0.95;;
65375;SDS011;51976;47.332;9.404;2024-01-06T05:30:36;1.63;;;1.20;;
65375;SDS011;51976;47.332;9.404;2024-01-06T05:33:02;2.92;;;1.45;;
65375;SDS011;51976;47.332;9.404;2024-01-06T05:35:28;1.70;;;1.40;;
65375;SDS011;51976;47.332;9.404;2024-01-06T05:37:54;1.65;;;1.13;;
65375;SDS011;51976;47.332;9.404;2024-01-06T05:40:19;3.45;;;1.75;;
65375;SDS011;51976;47.332;9.404;2024-01-06T05:42:45;2.53;;;1.58;;
65375;SDS011;51976;47.332;9.404;2024-01-06T05:45:10;2.90;;;2.13;;
65375;SDS011;51976;47.332;9.404;2024-01-06T05:47:37;1.77;;;1.33;;
65375;SDS011;51976;47.332;9.404;2024-01-06T05:50:03;2.88;;;1.90;;
65375;SDS011;51976;47.332;9.404;2024-01-06T05:52:28;2.60;;;1.95;;
65375;SDS011;51976;47.332;9.404;2024-01-06T05:54:54;2.88;;;2.00;;
65375;SDS011;51976;47.332;9.404;2024-01-06T05:57:19;2.10;;;1.67;;
65375;SDS011;51976;47.332;9.404;2024-01-06T05:59:45;1.55;;;1.20;;
65375;SDS011;51976;47.332;9.404;2024-01-06T06:02:11;2.53;;;1.10;;
65375;SDS011;51976;47.332;9.404;2024-01-06T06:04:36;1.60;;;1.25;;
65375;SDS011;51976;47.332;9.404;2024-01-06T06:07:02;1.73;;;1.10;;
65375;SDS011;51976;47.332;9.404;2024-01-06T06:09:27;1.67;;;0.80;;
65375;SDS011;51976;47.332;9.404;2024-01-06T06:11:53;1.52;;;1.10;;
65375;SDS011;51976;47.332;9.404;2024-01-06T06:14:19;1.45;;;1.00;;
65375;SDS011;51976;47.332;9.404;2024-01-06T06:16:44;2.08;;;1.10;;
65375;SDS011;51976;47.332;9.404;2024-01-06T06:19:10;1.85;;;1.42;;
65375;SDS011;51976;47.332;9.404;2024-01-06T06:21:35;3.08;;;2.40;;
65375;SDS011;51976;47.332;9.404;2024-01-06T06:24:01;2.13;;;1.92;;
65375;SDS011;51976;47.332;9.404;2024-01-06T06:26:27;1.60;;;1.17;;
65375;SDS011;51976;47.332;9.404;2024-01-06T06:28:53;1.90;;;1.10;;
65375;SDS011;51976;47.332;9.404;2024-01-06T06:31:19;1.58;;;1.00;;
65375;SDS011;51976;47.332;9.404;2024-01-06T06:33:44;1.55;;;1.00;;
65375;SDS011;51976;47.332;9.404;2024-01-06T06:36:10;1.58;;;0.93;;
65375;SDS011;51976;47.332;9.404;2024-01-06T06:38:35;1.42;;;1.13;;
65375;SDS011;51976;47.332;9.404;2024-01-06T06:41:01;2.42;;;1.45;;
65375;SDS011;51976;47.332;9.404;2024-01-06T06:43:26;1.77;;;1.20;;
65375;SDS011;51976;47.332;9.404;2024-01-06T06:45:51;2.13;;;1.58;;
65375;SDS011;51976;47.332;9.404;2024-01-06T06:48:17;2.15;;;1.60;;
65375;SDS011;51976;47.332;9.404;2024-01-06T06:50:42;2.25;;;1.42;;
65375;SDS011;51976;47.332;9.404;2024-01-06T06:53:08;2.38;;;1.35;;
65375;SDS011;51976;47.332;9.404;2024-01-06T06:55:34;3.03;;;1.58;;
65375;SDS011;51976;47.332;9.404;2024-01-06T06:57:59;2.00;;;1.60;;
65375;SDS011;51976;47.332;9.404;2024-01-06T07:00:24;3.00;;;2.15;;
65375;SDS011;51976;47.332;9.404;2024-01-06T07:02:50;2.58;;;2.00;;
65375;SDS011;51976;47.332;9.404;2024-01-06T07:05:15;4.30;;;2.88;;
65375;SDS011;51976;47.332;9.404;2024-01-06T07:07:42;5.05;;;4.20;;
65375;SDS011;51976;47.332;9.404;2024-01-06T07:10:11;4.20;;;2.97;;
65375;SDS011;51976;47.332;9.404;2024-01-06T07:12:37;2.90;;;2.10;;
65375;SDS011;51976;47.332;9.404;2024-01-06T07:15:03;2.90;;;2.60;;
65375;SDS011;51976;47.332;9.404;2024-01-06T07:17:28;4.53;;;2.85;;
65375;SDS011;51976;47.332;9.404;2024-01-06T07:19:53;3.38;;;2.50;;
65375;SDS011;51976;47.332;9.404;2024-01-06T07:22:19;4.38;;;2.28;;
65375;SDS011;51976;47.332;9.404;2024-01-06T07:24:45;2.47;;;1.67;;
65375;SDS011;51976;47.332;9.404;2024-01-06T07:27:10;2.63;;;1.70;;
65375;SDS011;51976;47.332;9.404;2024-01-06T07:29:36;10.98;;;5.05;;
65375;SDS011;51976;47.332;9.404;2024-01-06T07:32:02;14.70;;;6.95;;
65375;SDS011;51976;47.332;9.404;2024-01-06T07:34:28;8.65;;;4.70;;
65375;SDS011;51976;47.332;9.404;2024-01-06T07:36:53;5.82;;;4.00;;
65375;SDS011;51976;47.332;9.404;2024-01-06T07:39:19;5.50;;;2.70;;
65375;SDS011;51976;47.332;9.404;2024-01-06T07:41:44;3.75;;;2.85;;
65375;SDS011;51976;47.332;9.404;2024-01-06T07:44:11;3.17;;;2.58;;
65375;SDS011;51976;47.332;9.404;2024-01-06T07:46:40;2.85;;;2.17;;
65375;SDS011;51976;47.332;9.404;2024-01-06T07:49:06;3.75;;;2.65;;
65375;SDS011;51976;47.332;9.404;2024-01-06T07:51:31;2.92;;;2.30;;
65375;SDS011;51976;47.332;9.404;2024-01-06T07:53:57;3.67;;;2.85;;
65375;SDS011;51976;47.332;9.404;2024-01-06T07:56:23;3.63;;;2.80;;
65375;SDS011;51976;47.332;9.404;2024-01-06T07:58:48;3.40;;;2.25;;
65375;SDS011;51976;47.332;9.404;2024-01-06T08:01:14;3.05;;;2.30;;
65375;SDS011;51976;47.332;9.404;2024-01-06T08:03:39;4.68;;;3.20;;
65375;SDS011;51976;47.332;9.404;2024-01-06T08:06:05;13.13;;;6.60;;
65375;SDS011;51976;47.332;9.404;2024-01-06T08:08:31;15.27;;;7.43;;
65375;SDS011;51976;47.332;9.404;2024-01-06T08:10:56;6.78;;;4.18;;
65375;SDS011;51976;47.332;9.404;2024-01-06T08:13:22;3.30;;;2.55;;
65375;SDS011;51976;47.332;9.404;2024-01-06T08:15:47;3.83;;;2.60;;
65375;SDS011;51976;47.332;9.404;2024-01-06T08:18:13;3.38;;;2.80;;
65375;SDS011;51976;47.332;9.404;2024-01-06T08:20:38;4.22;;;2.53;;
65375;SDS011;51976;47.332;9.404;2024-01-06T08:23:04;5.47;;;2.65;;
65375;SDS011;51976;47.332;9.404;2024-01-06T08:25:29;3.60;;;2.58;;
65375;SDS011;51976;47.332;9.404;2024-01-06T08:27:55;6.57;;;3.22;;
65375;SDS011;51976;47.332;9.404;2024-01-06T08:30:20;4.57;;;2.70;;
65375;SDS011;51976;47.332;9.404;2024-01-06T08:32:45;4.30;;;2.70;;
65375;SDS011;51976;47.332;9.404;2024-01-06T08:35:11;3.85;;;2.58;;
65375;SDS011;51976;47.332;9.404;2024-01-06T08:37:36;4.68;;;3.05;;
65375;SDS011;51976;47.332;9.404;2024-01-06T08:40:02;4.85;;;2.67;;
65375;SDS011;51976;47.332;9.404;2024-01-06T08:42:29;4.25;;;3.15;;
65375;SDS011;51976;47.332;9.404;2024-01-06T08:44:55;5.55;;;2.95;;
65375;SDS011;51976;47.332;9.404;2024-01-06T08:47:20;4.20;;;3.13;;
65375;SDS011;51976;47.332;9.404;2024-01-06T08:49:45;4.50;;;3.00;;
65375;SDS011;51976;47.332;9.404;2024-01-06T08:52:11;4.93;;;3.15;;
65375;SDS011;51976;47.332;9.404;2024-01-06T08:54:36;5.20;;;3.33;;
65375;SDS011;51976;47.332;9.404;2024-01-06T08:57:02;4.32;;;3.22;;
65375;SDS011;51976;47.332;9.404;2024-01-06T08:59:27;7.07;;;3.92;;
65375;SDS011;51976;47.332;9.404;2024-01-06T09:01:52;5.50;;;3.80;;
65375;SDS011;51976;47.332;9.404;2024-01-06T09:04:18;6.05;;;4.00;;
65375;SDS011;51976;47.332;9.404;2024-01-06T09:06:43;6.45;;;4.28;;
65375;SDS011;51976;47.332;9.404;2024-01-06T09:09:10;5.00;;;3.63;;
65375;SDS011;51976;47.332;9.404;2024-01-06T09:11:35;5.07;;;3.50;;
65375;SDS011;51976;47.332;9.404;2024-01-06T09:14:01;5.45;;;4.30;;
65375;SDS011;51976;47.332;9.404;2024-01-06T09:16:26;7.38;;;3.88;;
65375;SDS011;51976;47.332;9.404;2024-01-06T09:18:51;5.38;;;3.63;;
65375;SDS011;51976;47.332;9.404;2024-01-06T09:21:17;6.38;;;3.70;;
65375;SDS011;51976;47.332;9.404;2024-01-06T09:23:42;5.82;;;3.78;;
65375;SDS011;51976;47.332;9.404;2024-01-06T09:26:08;7.45;;;3.92;;
65375;SDS011;51976;47.332;9.404;2024-01-06T09:28:33;8.00;;;3.95;;
65375;SDS011;51976;47.332;9.404;2024-01-06T09:30:59;7.85;;;4.20;;
65375;SDS011;51976;47.332;9.404;2024-01-06T09:33:24;7.22;;;4.55;;
65375;SDS011;51976;47.332;9.404;2024-01-06T09:35:50;9.25;;;5.88;;
65375;SDS011;51976;47.332;9.404;2024-01-06T09:38:15;11.40;;;7.40;;
65375;SDS011;51976;47.332;9.404;2024-01-06T09:40:43;15.73;;;9.02;;
65375;SDS011;51976;47.332;9.404;2024-01-06T09:43:09;14.77;;;9.32;;
65375;SDS011;51976;47.332;9.404;2024-01-06T09:45:36;34.92;;;18.75;;
65375;SDS011;51976;47.332;9.404;2024-01-06T09:48:03;64.97;;;33.25;;
65375;SDS011;51976;47.332;9.404;2024-01-06T09:50:40;41.20;;;23.63;;
65375;SDS011;51976;47.332;9.404;2024-01-06T09:53:08;28.02;;;16.70;;
65375;SDS011;51976;47.332;9.404;2024-01-06T09:55:36;31.13;;;21.23;;
65375;SDS011;51976;47.332;9.404;2024-01-06T09:58:02;31.00;;;21.02;;
65375;SDS011;51976;47.332;9.404;2024-01-06T10:00:27;20.10;;;13.88;;
65375;SDS011;51976;47.332;9.404;2024-01-06T10:02:53;12.25;;;7.85;;
65375;SDS011;51976;47.332;9.404;2024-01-06T10:05:20;9.23;;;6.20;;
65375;SDS011;51976;47.332;9.404;2024-01-06T10:07:46;9.05;;;5.95;;
65375;SDS011;51976;47.332;9.404;2024-01-06T10:10:12;7.88;;;5.53;;
65375;SDS011;51976;47.332;9.404;2024-01-06T10:12:39;7.10;;;4.85;;
65375;SDS011;51976;47.332;9.404;2024-01-06T10:15:06;7.57;;;4.15;;
65375;SDS011;51976;47.332;9.404;2024-01-06T10:17:35;5.57;;;3.95;;
65375;SDS011;51976;47.332;9.404;2024-01-06T10:20:02;4.55;;;3.13;;
65375;SDS011;51976;47.332;9.404;2024-01-06T10:22:30;6.35;;;3.53;;
65375;SDS011;51976;47.332;9.404;2024-01-06T10:24:56;4.95;;;3.55;;
65375;SDS011;51976;47.332;9.404;2024-01-06T10:27:21;5.35;;;3.20;;
65375;SDS011;51976;47.332;9.404;2024-01-06T10:29:47;4.43;;;2.90;;
65375;SDS011;51976;47.332;9.404;2024-01-06T10:32:12;3.80;;;3.00;;
65375;SDS011;51976;47.332;9.404;2024-01-06T10:34:38;4.90;;;2.92;;
65375;SDS011;51976;47.332;9.404;2024-01-06T10:37:03;3.45;;;2.58;;
65375;SDS011;51976;47.332;9.404;2024-01-06T10:39:28;2.78;;;2.20;;
65375;SDS011;51976;47.332;9.404;2024-01-06T10:41:54;3.05;;;2.10;;
65375;SDS011;51976;47.332;9.404;2024-01-06T10:44:20;2.55;;;1.88;;
65375;SDS011;51976;47.332;9.404;2024-01-06T10:46:46;3.28;;;1.95;;
65375;SDS011;51976;47.332;9.404;2024-01-06T10:49:14;2.90;;;1.95;;
65375;SDS011;51976;47.332;9.404;2024-01-06T10:51:40;2.72;;;1.95;;
65375;SDS011;51976;47.332;9.404;2024-01-06T10:54:06;3.90;;;2.50;;
65375;SDS011;51976;47.332;9.404;2024-01-06T10:56:33;2.70;;;2.00;;
65375;SDS011;51976;47.332;9.404;2024-01-06T10:59:02;3.45;;;2.08;;
65375;SDS011;51976;47.332;9.404;2024-01-06T11:01:28;3.13;;;2.17;;
65375;SDS011;51976;47.332;9.404;2024-01-06T11:03:54;3.35;;;2.00;;
65375;SDS011;51976;47.332;9.404;2024-01-06T11:06:21;3.63;;;2.25;;
65375;SDS011;51976;47.332;9.404;2024-01-06T11:08:52;4.22;;;2.50;;
65375;SDS011;51976;47.332;9.404;2024-01-06T11:11:24;4.68;;;2.15;;
65375;SDS011;51976;47.332;9.404;2024-01-06T11:13:50;5.80;;;2.72;;
65375;SDS011;51976;47.332;9.404;2024-01-06T11:16:36;3.83;;;2.17;;
65375;SDS011;51976;47.332;9.404;2024-01-06T11:19:02;6.25;;;2.95;;
65375;SDS011;51976;47.332;9.404;2024-01-06T11:21:27;5.10;;;3.00;;
65375;SDS011;51976;47.332;9.404;2024-01-06T11:24:09;6.25;;;2.92;;
65375;SDS011;51976;47.332;9.404;2024-01-06T11:26:41;4.25;;;2.33;;
65375;SDS011;51976;47.332;9.404;2024-01-06T11:29:08;5.15;;;2.55;;
65375;SDS011;51976;47.332;9.404;2024-01-06T11:31:33;4.05;;;2.20;;
65375;SDS011;51976;47.332;9.404;2024-01-06T11:34:12;2.97;;;1.92;;
65375;SDS011;51976;47.332;9.404;2024-01-06T11:36:39;4.13;;;2.10;;
65375;SDS011;51976;47.332;9.404;2024-01-06T11:39:05;3.60;;;2.00;;
65375;SDS011;51976;47.332;9.404;2024-01-06T11:41:48;3.72;;;2.25;;
65375;SDS011;51976;47.332;9.404;2024-01-06T11:44:17;2.90;;;2.20;;
65375;SDS011;51976;47.332;9.404;2024-01-06T11:46:45;6.32;;;2.20;;
65375;SDS011;51976;47.332;9.404;2024-01-06T11:49:12;4.00;;;2.47;;
65375;SDS011;51976;47.332;9.404;2024-01-06T11:51:41;3.22;;;1.58;;
65375;SDS011;51976;47.332;9.404;2024-01-06T11:54:06;2.50;;;1.52;;
65375;SDS011;51976;47.332;9.404;2024-01-06T11:56:32;3.30;;;1.92;;
65375;SDS011;51976;47.332;9.404;2024-01-06T11:58:57;4.55;;;1.80;;
65375;SDS011;51976;47.332;9.404;2024-01-06T12:01:23;3.40;;;2.15;;
65375;SDS011;51976;47.332;9.404;2024-01-06T12:03:54;2.88;;;2.00;;
65375;SDS011;51976;47.332;9.404;2024-01-06T12:06:20;2.72;;;1.70;;
65375;SDS011;51976;47.332;9.404;2024-01-06T12:08:48;2.65;;;1.92;;
65375;SDS011;51976;47.332;9.404;2024-01-06T12:11:16;2.83;;;1.55;;
65375;SDS011;51976;47.332;9.404;2024-01-06T12:13:43;4.72;;;2.25;;
65375;SDS011;51976;47.332;9.404;2024-01-06T12:16:09;4.78;;;1.90;;
65375;SDS011;51976;47.332;9.404;2024-01-06T12:18:35;2.83;;;1.75;;
65375;SDS011;51976;47.332;9.404;2024-01-06T12:21:00;3.55;;;1.65;;
65375;SDS011;51976;47.332;9.404;2024-01-06T12:23:26;3.92;;;1.48;;
65375;SDS011;51976;47.332;9.404;2024-01-06T12:25:53;5.97;;;1.50;;
65375;SDS011;51976;47.332;9.404;2024-01-06T12:28:21;2.72;;;1.30;;
65375;SDS011;51976;47.332;9.404;2024-01-06T12:30:46;3.90;;;2.00;;
65375;SDS011;51976;47.332;9.404;2024-01-06T12:33:12;4.00;;;1.85;;
65375;SDS011;51976;47.332;9.404;2024-01-06T12:35:38;2.03;;;1.45;;
65375;SDS011;51976;47.332;9.404;2024-01-06T12:38:04;2.45;;;1.35;;
65375;SDS011;51976;47.332;9.404;2024-01-06T12:40:32;3.67;;;1.90;;
65375;SDS011;51976;47.332;9.404;2024-01-06T12:43:00;1.85;;;1.35;;
65375;SDS011;51976;47.332;9.404;2024-01-06T12:45:25;2.78;;;1.80;;
65375;SDS011;51976;47.332;9.404;2024-01-06T12:47:52;4.78;;;1.55;;
65375;SDS011;51976;47.332;9.404;2024-01-06T12:50:19;3.35;;;1.98;;
65375;SDS011;51976;47.332;9.404;2024-01-06T12:52:44;3.25;;;2.17;;
65375;SDS011;51976;47.332;9.404;2024-01-06T12:55:10;5.35;;;1.92;;
65375;SDS011;51976;47.332;9.404;2024-01-06T12:57:36;4.38;;;2.67;;
65375;SDS011;51976;47.332;9.404;2024-01-06T13:00:02;3.97;;;1.70;;
65375;SDS011;51976;47.332;9.404;2024-01-06T13:02:28;2.60;;;1.38;;
65375;SDS011;51976;47.332;9.404;2024-01-06T13:04:54;3.80;;;1.80;;
65375;SDS011;51976;47.332;9.404;2024-01-06T13:07:20;3.35;;;1.60;;
65375;SDS011;51976;47.332;9.404;2024-01-06T13:09:47;5.45;;;2.15;;
65375;SDS011;51976;47.332;9.404;2024-01-06T13:12:13;3.67;;;2.15;;
65375;SDS011;51976;47.332;9.404;2024-01-06T13:14:38;3.60;;;1.88;;
65375;SDS011;51976;47.332;9.404;2024-01-06T13:17:04;4.50;;;2.00;;
65375;SDS011;51976;47.332;9.404;2024-01-06T13:19:30;2.97;;;2.00;;
65375;SDS011;51976;47.332;9.404;2024-01-06T13:21:55;2.63;;;1.90;;
65375;SDS011;51976;47.332;9.404;2024-01-06T13:24:21;2.33;;;1.40;;
65375;SDS011;51976;47.332;9.404;2024-01-06T13:26:47;2.85;;;1.73;;
65375;SDS011;51976;47.332;9.404;2024-01-06T13:29:13;6.13;;;1.90;;
65375;SDS011;51976;47.332;9.404;2024-01-06T13:31:38;4.13;;;2.35;;
65375;SDS011;51976;47.332;9.404;2024-01-06T13:34:04;3.50;;;1.85;;
65375;SDS011;51976;47.332;9.404;2024-01-06T13:36:30;4.63;;;2.00;;
65375;SDS011;51976;47.332;9.404;2024-01-06T13:38:56;4.30;;;2.03;;
65375;SDS011;51976;47.332;9.404;2024-01-06T13:41:21;3.85;;;2.00;;
65375;SDS011;51976;47.332;9.404;2024-01-06T13:43:47;2.65;;;1.95;;
65375;SDS011;51976;47.332;9.404;2024-01-06T13:46:13;2.58;;;1.70;;
65375;SDS011;51976;47.332;9.404;2024-01-06T13:48:39;3.38;;;1.92;;
65375;SDS011;51976;47.332;9.404;2024-01-06T13:51:05;3.58;;;1.83;;
65375;SDS011;51976;47.332;9.404;2024-01-06T13:53:31;4.93;;;2.10;;
65375;SDS011;51976;47.332;9.404;2024-01-06T13:55:56;4.55;;;2.00;;
65375;SDS011;51976;47.332;9.404;2024-01-06T13:58:21;4.68;;;2.13;;
65375;SDS011;51976;47.332;9.404;2024-01-06T14:00:47;2.50;;;1.80;;
65375;SDS011;51976;47.332;9.404;2024-01-06T14:03:13;2.83;;;1.83;;
65375;SDS011;51976;47.332;9.404;2024-01-06T14:05:39;3.42;;;2.17;;
65375;SDS011;51976;47.332;9.404;2024-01-06T14:08:05;4.78;;;2.63;;
65375;SDS011;51976;47.332;9.404;2024-01-06T14:10:31;5.35;;;2.30;;
65375;SDS011;51976;47.332;9.404;2024-01-06T14:12:56;4.22;;;2.33;;
65375;SDS011;51976;47.332;9.404;2024-01-06T14:15:22;4.45;;;2.47;;
65375;SDS011;51976;47.332;9.404;2024-01-06T14:17:48;4.13;;;2.65;;
65375;SDS011;51976;47.332;9.404;2024-01-06T14:20:15;3.70;;;2.20;;
65375;SDS011;51976;47.332;9.404;2024-01-06T14:22:43;2.95;;;1.70;;
65375;SDS011;51976;47.332;9.404;2024-01-06T14:25:09;10.48;;;3.85;;
65375;SDS011;51976;47.332;9.404;2024-01-06T14:27:34;9.40;;;4.57;;
65375;SDS011;51976;47.332;9.404;2024-01-06T14:30:00;10.55;;;4.47;;
65375;SDS011;51976;47.332;9.404;2024-01-06T14:32:26;7.85;;;4.13;;
65375;SDS011;51976;47.332;9.404;2024-01-06T14:34:51;7.45;;;2.95;;
65375;SDS011;51976;47.332;9.404;2024-01-06T14:37:17;5.10;;;3.30;;
65375;SDS011;51976;47.332;9.404;2024-01-06T14:39:42;4.25;;;2.72;;